createdAt,value
2023-01-23T00:01:29.867Z,-0.80
2023-01-23T00:03:57.611Z,-0.90
2023-01-23T00:06:25.435Z,-0.90
2023-01-23T00:08:52.733Z,-0.90
2023-01-23T00:11:22.389Z,-0.90
2023-01-23T00:13:49.213Z,-0.80
2023-01-23T00:16:21.506Z,-0.80
2023-01-23T00:18:49.136Z,-0.70
2023-01-23T00:21:18.253Z,-0.80
2023-01-23T00:23:47.531Z,-0.70
2023-01-23T00:26:17.037Z,-0.80
2023-01-23T00:28:44.638Z,-0.80
2023-01-23T00:31:23.053Z,-0.70
2023-01-23T00:33:58.008Z,-0.70
2023-01-23T00:36:27.874Z,-0.70
2023-01-23T00:38:54.727Z,-0.70
2023-01-23T00:41:21.505Z,-0.70
2023-01-23T00:43:48.582Z,-0.70
2023-01-23T00:46:15.491Z,-0.60
2023-01-23T00:48:42.242Z,-0.60
2023-01-23T00:51:09.129Z,-0.60
2023-01-23T00:53:35.936Z,-0.50
2023-01-23T00:56:02.871Z,-0.50
2023-01-23T00:58:29.725Z,-0.40
2023-01-23T01:00:56.621Z,-0.40
2023-01-23T01:03:25.222Z,-0.50
2023-01-23T01:05:52.333Z,-0.40
2023-01-23T01:08:19.328Z,-0.50
2023-01-23T01:10:46.111Z,-0.50
2023-01-23T01:13:13.034Z,-0.50
2023-01-23T01:15:40.014Z,-0.50
2023-01-23T01:18:06.812Z,-0.50
2023-01-23T01:20:33.631Z,-0.50
2023-01-23T01:23:00.632Z,-0.50
2023-01-23T01:25:27.756Z,-0.50
2023-01-23T01:27:56.057Z,-0.40
2023-01-23T01:30:25.436Z,-0.40
2023-01-23T01:32:52.219Z,-0.40
2023-01-23T01:35:19.022Z,-0.40
2023-01-23T01:37:46.218Z,-0.40
2023-01-23T01:40:17.723Z,-0.40
2023-01-23T01:43:18.052Z,-0.50
2023-01-23T01:46:03.464Z,-0.50
2023-01-23T01:48:35.409Z,-0.50
2023-01-23T01:51:04.473Z,-0.40
2023-01-23T01:53:33.430Z,-0.40
2023-01-23T01:56:00.869Z,-0.50
2023-01-23T01:58:28.534Z,-0.40
2023-01-23T02:00:57.045Z,-0.30
2023-01-23T02:03:25.705Z,-0.30
2023-01-23T02:05:52.677Z,-0.40
2023-01-23T02:08:58.276Z,-0.40
2023-01-23T02:11:25.253Z,-0.40
2023-01-23T02:13:55.308Z,-0.40
2023-01-23T02:16:26.422Z,-0.40
2023-01-23T02:19:03.845Z,-0.50
2023-01-23T02:21:30.751Z,-0.40
2023-01-23T02:24:23.142Z,-0.40
2023-01-23T02:26:50.134Z,-0.50
2023-01-23T02:29:19.262Z,-0.50
2023-01-23T02:31:47.131Z,-0.50
2023-01-23T02:34:14.867Z,-0.40
2023-01-23T02:36:44.267Z,-0.40
2023-01-23T02:39:19.397Z,-0.40
2023-01-23T02:41:48.814Z,-0.40
2023-01-23T02:44:27.341Z,-0.40
2023-01-23T02:47:04.957Z,-0.30
2023-01-23T02:49:31.966Z,-0.40
2023-01-23T02:51:58.838Z,-0.40
2023-01-23T02:54:26.328Z,-0.40
2023-01-23T02:56:53.225Z,-0.40
2023-01-23T02:59:38.429Z,-0.40
2023-01-23T03:02:06.411Z,-0.30
2023-01-23T03:04:33.254Z,-0.30
2023-01-23T03:07:00.388Z,-0.30
2023-01-23T03:09:27.579Z,-0.30
2023-01-23T03:11:54.587Z,-0.30
2023-01-23T03:14:23.231Z,-0.30
2023-01-23T03:16:51.564Z,-0.30
2023-01-23T03:19:20.917Z,-0.40
2023-01-23T03:21:47.746Z,-0.40
2023-01-23T03:24:15.573Z,-0.50
2023-01-23T03:26:44.403Z,-0.50
2023-01-23T03:29:42.247Z,-0.50
2023-01-23T03:32:10.550Z,-0.50
2023-01-23T03:34:37.802Z,-0.50
2023-01-23T03:37:05.480Z,-0.50
2023-01-23T03:39:51.059Z,-0.50
2023-01-23T03:42:17.971Z,-0.50
2023-01-23T03:44:44.775Z,-0.40
2023-01-23T03:47:11.591Z,-0.30
2023-01-23T03:49:38.476Z,-0.40
2023-01-23T03:52:05.826Z,-0.30
2023-01-23T03:54:32.657Z,-0.30
2023-01-23T03:56:59.438Z,-0.30
2023-01-23T03:59:26.191Z,-0.30
2023-01-23T04:01:52.983Z,-0.30
2023-01-23T04:04:19.789Z,-0.20
2023-01-23T04:06:46.577Z,-0.10
2023-01-23T04:09:13.377Z,-0.10
2023-01-23T04:11:40.183Z,-0.20
2023-01-23T04:14:07.030Z,-0.30
2023-01-23T04:16:33.939Z,-0.30
2023-01-23T04:19:00.738Z,-0.40
2023-01-23T04:21:27.612Z,-0.40
2023-01-23T04:23:54.378Z,-0.40
2023-01-23T04:26:21.246Z,-0.30
2023-01-23T04:28:48.044Z,-0.30
2023-01-23T04:31:15.478Z,-0.30
2023-01-23T04:33:42.318Z,-0.30
2023-01-23T04:36:09.237Z,-0.30
2023-01-23T04:38:36.332Z,-0.30
2023-01-23T04:41:04.153Z,-0.20
2023-01-23T04:43:31.471Z,-0.20
2023-01-23T04:45:58.911Z,-0.10
2023-01-23T04:48:25.926Z,-0.10
2023-01-23T04:50:52.857Z,-0.20
2023-01-23T04:53:20.088Z,-0.10
2023-01-23T04:55:49.112Z,0.00
2023-01-23T04:58:18.729Z,0.00
2023-01-23T05:00:46.408Z,0.10
2023-01-23T05:03:14.015Z,-0.10
2023-01-23T05:05:42.956Z,0.00
2023-01-23T05:08:10.797Z,0.10
2023-01-23T05:10:38.149Z,0.10
2023-01-23T05:13:05.082Z,0.00
2023-01-23T05:15:31.960Z,0.10
2023-01-23T05:17:59.609Z,0.00
2023-01-23T05:20:26.367Z,0.10
2023-01-23T05:22:53.206Z,0.00
2023-01-23T05:25:26.435Z,0.00
2023-01-23T05:27:53.625Z,-0.10
2023-01-23T05:30:22.933Z,0.00
2023-01-23T05:32:49.788Z,0.00
2023-01-23T05:35:16.758Z,0.00
2023-01-23T05:37:43.659Z,0.00
2023-01-23T05:40:13.382Z,0.10
2023-01-23T05:42:40.216Z,0.10
2023-01-23T05:45:07.659Z,0.00
2023-01-23T05:47:34.825Z,0.10
2023-01-23T05:50:01.677Z,0.10
2023-01-23T05:52:28.667Z,0.20
2023-01-23T05:54:55.548Z,0.10
2023-01-23T05:57:22.526Z,0.10
2023-01-23T05:59:49.261Z,0.10
2023-01-23T06:02:16.287Z,0.10
2023-01-23T06:04:43.061Z,0.10
2023-01-23T06:07:18.378Z,0.10
2023-01-23T06:09:45.684Z,0.10
2023-01-23T06:12:13.436Z,0.00
2023-01-23T06:14:40.581Z,0.00
2023-01-23T06:17:07.977Z,0.00
2023-01-23T06:19:34.850Z,0.10
2023-01-23T06:22:01.629Z,0.10
2023-01-23T06:24:28.508Z,0.10
2023-01-23T06:26:55.305Z,0.10
2023-01-23T06:29:22.134Z,0.10
2023-01-23T06:31:49.512Z,0.20
2023-01-23T06:34:16.377Z,0.10
2023-01-23T06:36:43.196Z,0.20
2023-01-23T06:39:13.578Z,0.10
2023-01-23T06:41:40.487Z,0.10
2023-01-23T06:44:07.903Z,0.10
2023-01-23T06:46:35.340Z,0.20
2023-01-23T06:49:05.208Z,0.20
2023-01-23T06:51:33.724Z,0.30
2023-01-23T06:54:00.738Z,0.30
2023-01-23T06:56:27.614Z,0.30
2023-01-23T06:58:54.390Z,0.30
2023-01-23T07:01:21.604Z,0.30
2023-01-23T07:03:48.603Z,0.30
2023-01-23T07:06:15.981Z,0.40
2023-01-23T07:08:43.876Z,0.30
2023-01-23T07:11:10.862Z,0.40
2023-01-23T07:13:37.942Z,0.40
2023-01-23T07:16:05.725Z,0.40
2023-01-23T07:18:33.270Z,0.40
2023-01-23T07:21:00.939Z,0.50
2023-01-23T07:23:27.760Z,0.30
2023-01-23T07:26:03.855Z,0.40
2023-01-23T07:28:31.021Z,0.20
2023-01-23T07:30:59.605Z,0.20
2023-01-23T07:33:26.827Z,0.20
2023-01-23T07:35:53.777Z,0.20
2023-01-23T07:38:20.882Z,0.20
2023-01-23T07:40:47.732Z,0.20
2023-01-23T07:43:14.496Z,0.20
2023-01-23T07:45:41.432Z,0.20
2023-01-23T07:48:08.800Z,0.20
2023-01-23T07:50:36.022Z,0.30
2023-01-23T07:53:03.572Z,0.20
2023-01-23T07:55:30.377Z,0.30
2023-01-23T07:57:57.406Z,0.20
2023-01-23T08:00:25.715Z,0.30
2023-01-23T08:02:54.019Z,0.20
2023-01-23T08:05:20.806Z,0.20
2023-01-23T08:07:47.781Z,0.20
2023-01-23T08:10:14.701Z,0.20
2023-01-23T08:12:41.550Z,0.20
2023-01-23T08:15:08.787Z,0.20
2023-01-23T08:17:36.905Z,0.20
2023-01-23T08:20:04.519Z,0.00
2023-01-23T08:22:31.312Z,0.20
2023-01-23T08:24:58.066Z,0.20
2023-01-23T08:27:24.837Z,0.20
2023-01-23T08:29:51.625Z,0.20
2023-01-23T08:32:18.371Z,0.30
2023-01-23T08:34:45.138Z,0.30
2023-01-23T08:37:11.939Z,0.20
2023-01-23T08:39:38.777Z,0.20
2023-01-23T08:42:05.700Z,0.10
2023-01-23T08:44:34.260Z,0.10
2023-01-23T08:47:03.133Z,0.20
2023-01-23T08:49:29.968Z,0.30
2023-01-23T08:51:57.555Z,0.30
2023-01-23T08:54:24.422Z,0.30
2023-01-23T08:56:51.341Z,0.40
2023-01-23T08:59:18.195Z,0.10
2023-01-23T09:01:47.545Z,0.20
2023-01-23T09:04:14.519Z,0.40
2023-01-23T09:06:41.282Z,0.40
2023-01-23T09:09:08.088Z,0.40
2023-01-23T09:11:35.026Z,0.40
2023-01-23T09:14:01.858Z,0.40
2023-01-23T09:16:28.646Z,0.40
2023-01-23T09:18:56.467Z,0.40
2023-01-23T09:21:23.291Z,0.40
2023-01-23T09:23:50.057Z,0.40
2023-01-23T09:26:19.598Z,0.30
2023-01-23T09:28:46.588Z,0.30
2023-01-23T09:31:14.664Z,0.20
2023-01-23T09:33:42.220Z,0.30
2023-01-23T09:36:09.963Z,0.30
2023-01-23T09:38:37.093Z,0.40
2023-01-23T09:41:28.071Z,0.30
2023-01-23T09:44:03.100Z,0.30
2023-01-23T09:47:02.436Z,0.40
2023-01-23T09:49:41.309Z,0.30
2023-01-23T09:52:13.379Z,0.40
2023-01-23T09:54:48.968Z,0.40
2023-01-23T09:57:23.386Z,0.50
2023-01-23T10:00:00.138Z,0.40
2023-01-23T10:02:28.100Z,0.40
2023-01-23T10:04:56.665Z,0.60
2023-01-23T10:07:44.219Z,0.50
2023-01-23T10:10:26.135Z,0.40
2023-01-23T10:13:33.510Z,0.40
2023-01-23T10:16:12.479Z,0.40
2023-01-23T10:19:05.550Z,0.40
2023-01-23T10:21:38.442Z,0.40
2023-01-23T10:24:39.821Z,0.30
2023-01-23T10:27:26.038Z,0.20
2023-01-23T10:30:13.727Z,0.30
2023-01-23T10:32:52.345Z,0.30
2023-01-23T10:35:47.469Z,0.40
2023-01-23T10:39:00.963Z,0.40
2023-01-23T10:41:27.937Z,0.20
2023-01-23T10:43:57.270Z,0.20
2023-01-23T10:46:54.117Z,0.10
2023-01-23T10:49:37.616Z,0.20
2023-01-23T10:52:10.194Z,0.30
2023-01-23T10:54:47.014Z,0.30
2023-01-23T10:57:13.862Z,0.20
2023-01-23T10:59:50.669Z,0.20
2023-01-23T11:02:21.009Z,0.10
2023-01-23T11:04:51.923Z,0.20
2023-01-23T11:07:26.974Z,0.20
2023-01-23T11:10:10.026Z,0.20
2023-01-23T11:12:49.405Z,0.20
2023-01-23T11:15:26.698Z,0.10
2023-01-23T11:17:56.705Z,0.10
2023-01-23T11:20:25.192Z,0.10
2023-01-23T11:23:16.675Z,0.00
2023-01-23T11:25:47.628Z,0.00
2023-01-23T11:28:17.151Z,0.10
2023-01-23T11:31:12.296Z,0.30
2023-01-23T11:33:58.566Z,0.30
2023-01-23T11:36:54.161Z,0.20
2023-01-23T11:39:36.315Z,0.20
2023-01-23T11:42:03.950Z,0.20
2023-01-23T11:44:41.500Z,0.20
2023-01-23T11:47:22.332Z,0.10
2023-01-23T11:50:14.819Z,0.20
2023-01-23T11:52:57.677Z,0.20
2023-01-23T11:55:47.503Z,0.30
2023-01-23T11:58:50.317Z,0.30
2023-01-23T12:01:30.697Z,0.40
2023-01-23T12:04:16.019Z,0.40
2023-01-23T12:07:01.226Z,0.40
2023-01-23T12:09:47.498Z,0.40
2023-01-23T12:12:26.624Z,0.50
2023-01-23T12:15:03.131Z,0.40
2023-01-23T12:17:42.884Z,0.30
2023-01-23T12:20:28.649Z,0.40
2023-01-23T12:23:13.974Z,0.50
2023-01-23T12:25:45.587Z,0.60
2023-01-23T12:28:18.191Z,0.50
2023-01-23T12:30:53.670Z,0.60
2023-01-23T12:33:47.908Z,0.50
2023-01-23T12:36:29.116Z,0.40
2023-01-23T12:39:08.065Z,0.40
2023-01-23T12:41:38.065Z,0.50
2023-01-23T12:44:58.141Z,0.50
2023-01-23T12:47:30.762Z,0.50
2023-01-23T12:50:08.419Z,0.50
2023-01-23T12:53:05.581Z,0.50
2023-01-23T12:56:01.783Z,0.60
2023-01-23T12:58:34.112Z,0.70
2023-01-23T13:01:04.966Z,0.60
2023-01-23T13:04:04.407Z,0.70
2023-01-23T13:07:09.128Z,0.80
2023-01-23T13:10:05.870Z,0.80
2023-01-23T13:12:33.449Z,0.70
2023-01-23T13:15:34.231Z,0.70
2023-01-23T13:18:06.227Z,0.70
2023-01-23T13:21:15.694Z,0.50
2023-01-23T13:23:42.931Z,0.40
2023-01-23T13:26:17.302Z,0.50
2023-01-23T13:28:51.505Z,0.50
2023-01-23T13:31:38.450Z,0.50
2023-01-23T13:34:17.266Z,0.40
2023-01-23T13:36:48.930Z,0.40
2023-01-23T13:39:19.625Z,0.50
2023-01-23T13:42:09.333Z,0.50
2023-01-23T13:44:42.263Z,0.60
2023-01-23T14:27:53.188Z,0.40
2023-01-23T14:30:26.382Z,0.40
2023-01-23T14:32:53.551Z,0.40
2023-01-23T14:35:26.394Z,0.40
2023-01-23T14:37:58.534Z,0.30
2023-01-23T14:40:28.736Z,0.40
2023-01-23T14:43:01.012Z,0.50
2023-01-23T14:45:33.610Z,0.50
2023-01-23T14:48:06.413Z,0.60
2023-01-23T14:50:34.767Z,0.40
2023-01-23T14:53:07.335Z,0.40
2023-01-23T14:55:41.579Z,0.40
2023-01-23T14:58:21.278Z,0.30
2023-01-23T15:00:49.347Z,0.30
2023-01-23T15:03:45.087Z,0.30
2023-01-23T15:06:20.100Z,0.30
2023-01-23T15:08:48.094Z,0.30
2023-01-23T15:11:15.673Z,0.40
2023-01-23T15:14:01.385Z,0.50
2023-01-23T15:16:34.243Z,0.50
2023-01-23T15:19:04.935Z,0.30
2023-01-23T15:21:35.511Z,0.30
2023-01-23T15:24:09.789Z,0.30
2023-01-23T15:26:39.750Z,0.30
2023-01-23T15:29:09.611Z,0.30
2023-01-23T15:31:43.357Z,0.30
2023-01-23T15:34:16.522Z,0.30
2023-01-23T15:36:47.955Z,0.20
2023-01-23T15:39:51.951Z,0.20
2023-01-23T15:42:18.870Z,0.20
2023-01-23T15:44:45.964Z,0.20
2023-01-23T15:47:12.839Z,0.20
2023-01-23T15:49:40.626Z,0.20
2023-01-23T15:52:25.962Z,0.20
2023-01-23T15:55:03.531Z,0.20
2023-01-23T15:57:30.505Z,0.20
2023-01-23T15:59:57.479Z,0.10
2023-01-23T16:02:31.237Z,0.10
2023-01-23T16:05:00.984Z,0.10
2023-01-23T16:07:47.150Z,0.10
2023-01-23T16:10:29.223Z,0.10
2023-01-23T16:12:57.739Z,0.10
2023-01-23T16:15:35.422Z,0.20
2023-01-23T16:18:04.737Z,0.20
2023-01-23T16:20:40.457Z,0.20
2023-01-23T16:23:15.591Z,0.20
2023-01-23T16:25:45.773Z,0.20
2023-01-23T16:28:13.721Z,0.10
2023-01-23T16:30:40.615Z,0.10
2023-01-23T16:33:07.758Z,0.20
2023-01-23T16:35:34.887Z,0.20
2023-01-23T16:38:01.933Z,0.30
2023-01-23T16:40:33.153Z,0.20
2023-01-23T16:43:02.705Z,0.30
2023-01-23T16:45:32.048Z,0.20
2023-01-23T16:47:59.758Z,0.20
2023-01-23T16:50:31.407Z,0.20
2023-01-23T16:53:04.461Z,0.20
2023-01-23T16:55:35.399Z,0.20
2023-01-23T16:58:04.827Z,0.20
2023-01-23T17:00:35.598Z,0.20
2023-01-23T17:03:07.513Z,0.20
2023-01-23T17:05:34.462Z,0.20
2023-01-23T17:08:02.308Z,0.20
2023-01-23T17:10:37.993Z,0.20
2023-01-23T17:13:11.000Z,0.30
2023-01-23T17:15:37.940Z,0.20
2023-01-23T17:18:05.247Z,0.30
2023-01-23T17:20:32.520Z,0.30
2023-01-23T17:22:59.518Z,0.20
2023-01-23T17:25:27.277Z,0.40
2023-01-23T17:28:11.103Z,0.30
2023-01-23T17:30:40.478Z,0.50
2023-01-23T17:33:19.590Z,0.40
2023-01-23T17:35:47.846Z,0.40
2023-01-23T17:38:17.778Z,0.40
2023-01-23T17:40:45.270Z,0.40
2023-01-23T17:43:13.992Z,0.50
2023-01-23T17:45:42.843Z,0.40
2023-01-23T17:48:31.624Z,0.40
2023-01-23T17:50:59.371Z,0.30
2023-01-23T17:53:28.001Z,0.30
2023-01-23T17:55:55.006Z,0.30
2023-01-23T17:58:21.941Z,0.20
2023-01-23T18:00:51.288Z,0.20
2023-01-23T18:03:21.980Z,0.20
2023-01-23T18:05:49.319Z,0.20
2023-01-23T18:08:22.114Z,0.20
2023-01-23T18:10:53.071Z,0.30
2023-01-23T18:13:38.770Z,0.30
2023-01-23T18:16:15.465Z,0.30
2023-01-23T18:18:43.274Z,0.20
2023-01-23T18:21:17.528Z,0.20
2023-01-23T18:23:44.948Z,0.20
2023-01-23T18:26:36.180Z,0.20
2023-01-23T18:29:31.206Z,0.30
2023-01-23T18:32:18.968Z,0.20
2023-01-23T18:35:01.135Z,0.20
2023-01-23T18:38:02.561Z,0.30
2023-01-23T18:41:02.149Z,0.20
2023-01-23T18:43:35.505Z,0.20
2023-01-23T18:46:04.859Z,0.30
2023-01-23T18:48:34.072Z,0.20
2023-01-23T18:51:16.090Z,0.30
2023-01-23T18:54:05.085Z,0.20
2023-01-23T18:56:56.355Z,0.20
2023-01-23T18:59:30.705Z,0.20
2023-01-23T19:02:34.069Z,0.20
2023-01-23T19:05:16.688Z,0.20
2023-01-23T19:07:45.154Z,0.20
2023-01-23T19:10:23.682Z,0.30
2023-01-23T19:13:13.696Z,0.20
2023-01-23T19:15:57.870Z,0.20
2023-01-23T19:18:45.543Z,0.30
2023-01-23T19:21:25.127Z,0.40
2023-01-23T19:23:55.470Z,0.20
2023-01-23T19:26:23.432Z,0.10
2023-01-23T19:28:50.840Z,0.10
2023-01-23T19:31:29.294Z,0.10
2023-01-23T19:33:56.949Z,0.10
2023-01-23T19:36:24.583Z,0.20
2023-01-23T19:39:00.966Z,0.30
2023-01-23T19:41:39.480Z,0.40
2023-01-23T19:44:06.750Z,0.30
2023-01-23T19:46:35.404Z,0.30
2023-01-23T19:49:03.931Z,0.30
2023-01-23T19:51:33.305Z,0.30
2023-01-23T19:54:01.068Z,0.30
2023-01-23T19:56:28.500Z,0.30
2023-01-23T19:58:56.372Z,0.30
2023-01-23T20:01:38.663Z,0.30
2023-01-23T20:04:06.780Z,0.30
2023-01-23T20:06:35.482Z,0.20
2023-01-23T20:09:02.406Z,0.30
2023-01-23T20:11:29.280Z,0.30
2023-01-23T20:13:56.144Z,0.20
2023-01-23T20:16:27.202Z,0.20
2023-01-23T20:18:54.605Z,0.30
2023-01-23T20:21:24.287Z,0.30
2023-01-23T20:23:51.679Z,0.30
2023-01-23T20:26:21.208Z,0.30
2023-01-23T20:28:55.533Z,0.30
2023-01-23T20:31:23.110Z,0.30
2023-01-23T20:33:50.568Z,0.30
2023-01-23T20:36:17.809Z,0.20
2023-01-23T20:38:45.002Z,0.20
2023-01-23T20:41:17.953Z,0.30
2023-01-23T20:43:45.478Z,0.30
2023-01-23T20:46:14.155Z,0.30
2023-01-23T20:48:46.468Z,0.30
2023-01-23T20:51:15.847Z,0.30
2023-01-23T20:53:43.110Z,0.30
2023-01-23T20:56:15.919Z,0.30
2023-01-23T20:59:04.760Z,0.30
2023-01-23T21:01:54.249Z,0.40
2023-01-23T21:04:22.477Z,0.40
2023-01-23T21:06:49.450Z,0.30
2023-01-23T21:09:16.940Z,0.30
2023-01-23T21:11:43.862Z,0.30
2023-01-23T21:14:10.823Z,0.30
2023-01-23T21:16:37.690Z,0.30
2023-01-23T21:19:04.656Z,0.20
2023-01-23T21:21:31.486Z,0.30
2023-01-23T21:23:58.476Z,0.20
2023-01-23T21:26:26.768Z,0.20
2023-01-23T21:28:55.117Z,0.20
2023-01-23T21:31:33.083Z,0.20
2023-01-23T21:34:01.839Z,0.30
2023-01-23T21:36:28.906Z,0.20
2023-01-23T21:38:56.094Z,0.20
2023-01-23T21:41:23.255Z,0.20
2023-01-23T21:43:50.271Z,0.20
2023-01-23T21:46:17.635Z,0.20
2023-01-23T21:48:44.460Z,0.20
2023-01-23T21:51:15.634Z,0.20
2023-01-23T21:53:44.424Z,0.20
2023-01-23T21:56:12.575Z,0.20
2023-01-23T21:58:39.639Z,0.20
2023-01-23T22:01:31.296Z,0.10
2023-01-23T22:04:04.369Z,0.10
2023-01-23T22:06:31.520Z,0.10
2023-01-23T22:08:59.187Z,0.00
2023-01-23T22:11:26.110Z,0.10
2023-01-23T22:13:53.275Z,0.20
2023-01-23T22:16:22.869Z,0.20
2023-01-23T22:18:55.218Z,0.20
2023-01-23T22:21:22.065Z,0.10
2023-01-23T22:23:48.856Z,0.10
2023-01-23T22:26:15.690Z,0.10
2023-01-23T22:28:42.482Z,0.00
2023-01-23T22:31:14.737Z,0.10
2023-01-23T22:33:48.286Z,0.20
2023-01-23T22:36:18.345Z,0.20
2023-01-23T22:38:51.328Z,0.10
2023-01-23T22:41:19.054Z,0.10
2023-01-23T22:43:45.987Z,0.10
2023-01-23T22:46:15.463Z,0.20
2023-01-23T22:48:42.631Z,0.10
2023-01-23T22:51:18.442Z,0.10
2023-01-23T22:53:45.357Z,0.10
2023-01-23T22:56:12.951Z,0.10
2023-01-23T22:58:39.772Z,0.20
2023-01-23T23:01:06.841Z,0.10
2023-01-23T23:03:34.733Z,0.10
2023-01-23T23:06:04.283Z,0.10
2023-01-23T23:08:31.439Z,0.10
2023-01-23T23:11:02.381Z,0.30
2023-01-23T23:13:31.604Z,0.20
2023-01-23T23:16:02.027Z,0.30
2023-01-23T23:18:28.841Z,0.20
2023-01-23T23:21:04.280Z,0.20
2023-01-23T23:23:31.163Z,0.10
2023-01-23T23:25:58.176Z,0.10
2023-01-23T23:28:26.713Z,0.20
2023-01-23T23:30:53.822Z,0.10
2023-01-23T23:33:22.255Z,-0.10
2023-01-23T23:35:49.111Z,0.10
2023-01-23T23:38:16.354Z,0.10
2023-01-23T23:40:43.163Z,0.10
2023-01-23T23:43:10.085Z,0.00
2023-01-23T23:45:36.883Z,0.10
2023-01-23T23:48:03.803Z,0.00
2023-01-23T23:50:32.905Z,0.10
2023-01-23T23:52:59.667Z,0.20
2023-01-23T23:55:26.465Z,0.20
2023-01-23T23:57:53.226Z,0.20
